createdAt,value
2022-11-04T00:00:55.511Z,11.82
2022-11-04T00:01:58.664Z,13.05
2022-11-04T00:03:01.464Z,10.40
2022-11-04T00:04:05.155Z,12.02
2022-11-04T00:05:07.718Z,12.10
2022-11-04T00:06:10.508Z,9.75
2022-11-04T00:07:31.378Z,8.98
2022-11-04T00:08:32.777Z,9.73
2022-11-04T00:09:34.753Z,10.40
2022-11-04T00:10:55.429Z,10.88
2022-11-04T00:12:18.064Z,10.30
2022-11-04T00:13:23.380Z,10.60
2022-11-04T00:14:25.933Z,10.45
2022-11-04T00:15:47.519Z,9.32
2022-11-04T00:17:09.403Z,9.68
2022-11-04T00:18:11.096Z,9.30
2022-11-04T00:19:15.534Z,9.68
2022-11-04T00:20:51.903Z,10.02
2022-11-04T00:22:15.237Z,9.18
2022-11-04T00:23:37.904Z,9.82
2022-11-04T00:24:58.478Z,8.95
2022-11-04T00:26:24.072Z,9.50
2022-11-04T00:27:44.392Z,8.25
2022-11-04T00:28:47.162Z,7.88
2022-11-04T00:29:48.785Z,9.05
2022-11-04T00:31:20.471Z,8.63
2022-11-04T00:32:45.925Z,8.35
2022-11-04T00:33:48.995Z,9.30
2022-11-04T00:34:57.359Z,9.05
2022-11-04T00:35:59.700Z,9.35
2022-11-04T00:37:03.178Z,8.30
2022-11-04T00:38:04.941Z,9.20
2022-11-04T00:39:07.699Z,9.25
2022-11-04T00:40:12.859Z,8.48
2022-11-04T00:41:28.162Z,10.18
2022-11-04T00:42:30.873Z,9.10
2022-11-04T00:43:35.030Z,9.50
2022-11-04T00:44:37.521Z,10.00
2022-11-04T00:45:43.779Z,8.70
2022-11-04T00:46:45.187Z,8.10
2022-11-04T00:47:46.640Z,9.15
2022-11-04T00:48:50.318Z,7.22
2022-11-04T00:49:58.677Z,9.50
2022-11-04T00:51:01.416Z,6.72
2022-11-04T00:52:03.873Z,8.30
2022-11-04T00:53:08.947Z,8.73
2022-11-04T00:54:16.899Z,6.88
2022-11-04T00:55:19.606Z,8.82
2022-11-04T00:56:23.257Z,8.18
2022-11-04T00:57:25.943Z,8.52
2022-11-04T00:58:31.380Z,8.88
2022-11-04T00:59:34.521Z,9.20
2022-11-04T01:00:38.376Z,9.10
2022-11-04T01:01:41.920Z,8.75
2022-11-04T01:02:46.281Z,9.18
2022-11-04T01:03:54.565Z,8.88
2022-11-04T01:04:56.983Z,9.93
2022-11-04T01:05:58.585Z,10.40
2022-11-04T01:07:01.495Z,10.65
2022-11-04T01:08:07.528Z,10.13
2022-11-04T01:09:15.030Z,9.38
2022-11-04T01:10:17.745Z,9.80
2022-11-04T01:11:19.743Z,10.43
2022-11-04T01:12:28.465Z,12.43
2022-11-04T01:13:31.461Z,11.77
2022-11-04T01:18:50.857Z,9.65
2022-11-04T01:19:53.413Z,10.75
2022-11-04T01:57:41.367Z,10.27
2022-11-04T01:58:50.834Z,7.70
2022-11-04T01:59:54.882Z,6.78
2022-11-04T02:00:56.797Z,7.78
2022-11-04T02:02:01.248Z,6.88
2022-11-04T02:03:31.658Z,7.95
2022-11-04T02:04:33.573Z,5.78
2022-11-04T02:05:35.803Z,5.50
2022-11-04T02:06:38.505Z,5.55
2022-11-04T02:07:40.215Z,4.90
2022-11-04T02:08:45.926Z,6.00
2022-11-04T02:09:47.846Z,4.15
2022-11-04T02:10:54.718Z,5.00
2022-11-04T02:12:16.723Z,4.18
2022-11-04T02:13:18.752Z,4.07
2022-11-04T02:14:23.082Z,4.50
2022-11-04T02:15:57.077Z,4.25
2022-11-04T02:17:20.345Z,4.22
2022-11-04T02:18:55.490Z,4.32
2022-11-04T02:20:12.557Z,4.38
2022-11-04T02:21:33.109Z,4.38
2022-11-04T02:22:59.121Z,4.13
2022-11-04T02:24:32.451Z,3.67
2022-11-04T02:25:55.498Z,3.78
2022-11-04T02:27:29.163Z,3.42
2022-11-04T02:29:09.402Z,3.65
2022-11-04T02:30:21.282Z,3.50
2022-11-04T02:31:41.353Z,3.33
2022-11-04T02:33:14.941Z,3.78
2022-11-04T02:34:28.967Z,4.38
2022-11-04T02:35:53.109Z,3.28
2022-11-04T02:37:19.145Z,4.57
2022-11-04T02:38:39.302Z,3.38
2022-11-04T02:40:16.821Z,3.30
2022-11-04T02:41:50.634Z,3.70
2022-11-04T02:43:03.220Z,3.72
2022-11-04T02:44:40.438Z,3.92
2022-11-04T02:45:46.678Z,4.38
2022-11-04T02:47:15.852Z,3.60
2022-11-04T02:48:17.895Z,3.40
2022-11-04T02:49:43.340Z,3.55
2022-11-04T02:51:28.610Z,4.10
2022-11-04T02:52:42.214Z,3.30
2022-11-04T02:53:55.702Z,3.80
2022-11-04T02:55:13.123Z,3.35
2022-11-04T02:56:19.447Z,3.95
2022-11-04T02:57:28.819Z,4.20
2022-11-04T02:58:37.291Z,4.10
2022-11-04T02:59:59.597Z,4.78
2022-11-04T03:01:05.287Z,4.57
2022-11-04T03:02:16.691Z,3.95
2022-11-04T03:03:26.369Z,3.53
2022-11-04T03:04:33.576Z,4.43
2022-11-04T03:05:39.702Z,4.07
2022-11-04T03:06:48.278Z,3.80
2022-11-04T03:07:52.878Z,3.60
2022-11-04T03:08:55.777Z,3.80
2022-11-04T03:10:02.156Z,5.10
2022-11-04T03:11:11.585Z,3.60
2022-11-04T03:12:20.222Z,3.90
2022-11-04T03:13:46.988Z,3.60
2022-11-04T03:14:59.134Z,3.60
2022-11-04T03:16:14.037Z,3.38
2022-11-04T03:17:45.149Z,3.90
2022-11-04T03:19:14.966Z,3.97
2022-11-04T03:20:25.653Z,3.40
2022-11-04T03:21:32.023Z,3.87
2022-11-04T03:22:36.931Z,3.58
2022-11-04T03:23:43.842Z,3.60
2022-11-04T03:24:48.171Z,4.85
2022-11-04T03:25:54.474Z,4.68
2022-11-04T03:27:03.019Z,4.70
2022-11-04T03:28:51.414Z,4.30
2022-11-04T03:30:04.933Z,3.72
2022-11-04T03:31:19.776Z,3.90
2022-11-04T03:32:43.214Z,3.97
2022-11-04T03:33:54.882Z,3.37
2022-11-04T03:34:56.328Z,4.18
2022-11-04T03:35:58.415Z,3.70
2022-11-04T03:37:01.229Z,4.28
2022-11-04T03:38:02.942Z,3.80
2022-11-04T03:39:04.862Z,3.50
2022-11-04T03:40:09.093Z,3.72
2022-11-04T03:41:32.367Z,3.60
2022-11-04T03:42:40.213Z,4.72
2022-11-04T03:43:41.873Z,3.28
2022-11-04T03:44:46.955Z,3.83
2022-11-04T03:45:51.572Z,4.07
2022-11-04T03:46:54.650Z,3.47
2022-11-04T03:47:57.792Z,3.17
2022-11-04T03:49:01.020Z,4.15
2022-11-04T03:50:09.629Z,3.80
2022-11-04T03:51:14.304Z,3.92
2022-11-04T03:52:17.629Z,2.80
2022-11-04T03:53:28.469Z,3.40
2022-11-04T03:54:41.784Z,4.50
2022-11-04T03:56:30.008Z,3.58
2022-11-04T03:57:50.492Z,4.28
2022-11-04T03:59:24.669Z,4.10
2022-11-04T04:00:33.905Z,5.13
2022-11-04T04:01:49.044Z,3.45
2022-11-04T04:03:02.624Z,4.10
2022-11-04T04:04:44.571Z,3.63
2022-11-04T04:06:00.256Z,4.13
2022-11-04T04:07:07.056Z,4.25
2022-11-04T04:08:33.281Z,3.75
2022-11-04T04:09:53.821Z,4.40
2022-11-04T04:11:37.583Z,3.67
2022-11-04T04:12:41.414Z,4.70
2022-11-04T04:14:08.397Z,5.13
2022-11-04T04:15:23.520Z,3.97
2022-11-04T04:16:39.420Z,3.40
2022-11-04T04:18:12.851Z,3.97
2022-11-04T04:19:24.774Z,4.20
2022-11-04T04:20:31.580Z,3.50
2022-11-04T04:21:59.019Z,3.50
2022-11-04T04:23:29.505Z,4.55
2022-11-04T04:25:01.182Z,4.43
2022-11-04T04:26:26.822Z,4.30
2022-11-04T04:27:31.727Z,4.28
2022-11-04T04:28:36.060Z,4.10
2022-11-04T04:29:38.769Z,3.85
2022-11-04T04:30:49.449Z,3.67
2022-11-04T04:31:58.139Z,4.15
2022-11-04T04:33:08.437Z,4.97
2022-11-04T04:34:12.941Z,4.53
2022-11-04T04:35:36.998Z,4.72
2022-11-04T04:36:46.505Z,4.70
2022-11-04T04:37:52.518Z,3.90
2022-11-04T04:39:30.150Z,4.53
2022-11-04T04:40:50.468Z,4.22
2022-11-04T04:42:13.621Z,4.18
2022-11-04T04:43:35.678Z,3.30
2022-11-04T04:45:00.651Z,5.70
2022-11-04T04:46:05.727Z,5.10
2022-11-04T04:47:11.115Z,4.30
2022-11-04T04:48:14.326Z,4.47
2022-11-04T04:49:15.922Z,4.47
2022-11-04T04:50:22.018Z,4.95
2022-11-04T04:51:25.092Z,4.85
2022-11-04T04:52:30.999Z,4.30
2022-11-04T04:53:32.789Z,4.07
2022-11-04T04:54:34.881Z,4.60
2022-11-04T04:55:40.724Z,3.95
2022-11-04T04:56:44.786Z,4.07
2022-11-04T04:57:46.821Z,3.83
2022-11-04T04:58:50.235Z,4.25
2022-11-04T04:59:51.846Z,3.72
2022-11-04T05:00:54.443Z,4.53
2022-11-04T05:02:00.186Z,4.13
2022-11-04T05:03:02.005Z,4.57
2022-11-04T05:04:03.987Z,4.03
2022-11-04T05:05:06.364Z,4.65
2022-11-04T05:06:09.407Z,3.85
2022-11-04T05:07:14.385Z,5.18
2022-11-04T05:08:16.601Z,4.55
2022-11-04T05:09:19.247Z,4.47
2022-11-04T05:10:21.100Z,4.25
2022-11-04T05:11:26.071Z,4.30
2022-11-04T05:12:53.257Z,4.85
2022-11-04T05:13:57.534Z,4.73
2022-11-04T05:15:00.310Z,3.90
2022-11-04T05:16:10.999Z,4.53
2022-11-04T05:17:12.918Z,4.13
2022-11-04T05:18:16.212Z,4.20
2022-11-04T05:19:18.081Z,4.40
2022-11-04T05:20:23.240Z,4.55
2022-11-04T05:21:24.701Z,4.72
2022-11-04T05:22:29.044Z,5.00
2022-11-04T05:23:31.727Z,5.25
2022-11-04T05:24:33.959Z,5.13
2022-11-04T05:25:37.128Z,4.72
2022-11-04T05:26:38.930Z,4.90
2022-11-04T05:27:40.974Z,5.07
2022-11-04T05:28:44.154Z,3.58
2022-11-04T05:29:45.897Z,4.05
2022-11-04T05:30:48.451Z,3.30
2022-11-04T05:31:50.947Z,3.92
2022-11-04T05:32:54.042Z,3.38
2022-11-04T05:33:56.672Z,5.47
2022-11-04T05:34:58.169Z,4.45
2022-11-04T05:36:15.831Z,5.32
2022-11-04T05:37:17.921Z,4.65
2022-11-04T05:38:22.182Z,6.45
2022-11-04T05:39:24.791Z,5.45
2022-11-04T05:40:29.066Z,5.20
2022-11-04T05:41:34.539Z,4.50
2022-11-04T05:42:36.967Z,3.90
2022-11-04T05:43:38.546Z,4.25
2022-11-04T05:44:40.813Z,4.88
2022-11-04T05:45:42.914Z,5.38
2022-11-04T05:46:44.675Z,4.35
2022-11-04T05:47:46.894Z,6.05
2022-11-04T05:48:50.592Z,7.32
2022-11-04T05:49:58.994Z,8.38
2022-11-04T05:51:04.002Z,15.23
2022-11-04T05:52:05.838Z,15.02
2022-11-04T05:53:08.212Z,21.95
2022-11-04T05:54:13.861Z,19.67
2022-11-04T05:55:15.837Z,18.77
2022-11-04T05:56:20.510Z,17.90
2022-11-04T05:57:22.865Z,9.35
2022-11-04T05:58:24.808Z,9.85
2022-11-04T05:59:28.906Z,6.63
2022-11-04T06:00:31.702Z,8.50
2022-11-04T06:01:39.487Z,8.70
2022-11-04T06:02:41.122Z,7.13
2022-11-04T06:03:46.341Z,8.30
2022-11-04T06:04:49.033Z,9.38
2022-11-04T06:05:50.806Z,9.68
2022-11-04T06:06:52.898Z,9.48
2022-11-04T06:07:56.874Z,8.57
2022-11-04T06:08:59.753Z,8.68
2022-11-04T06:10:03.974Z,8.98
2022-11-04T06:11:06.771Z,7.82
2022-11-04T06:12:14.278Z,7.90
2022-11-04T06:13:19.007Z,8.82
2022-11-04T06:14:20.934Z,8.02
2022-11-04T06:15:23.667Z,7.65
2022-11-04T06:16:26.292Z,8.38
2022-11-04T06:17:28.910Z,8.05
2022-11-04T06:18:30.901Z,5.97
2022-11-04T06:19:32.954Z,6.45
2022-11-04T06:20:35.742Z,5.47
2022-11-04T06:21:37.830Z,6.80
2022-11-04T06:22:42.525Z,6.45
2022-11-04T06:23:45.757Z,6.95
2022-11-04T06:24:47.161Z,5.95
2022-11-04T06:25:52.625Z,6.15
2022-11-04T06:26:55.140Z,6.03
2022-11-04T06:27:56.895Z,6.10
2022-11-04T06:28:59.593Z,6.25
2022-11-04T06:30:02.283Z,6.90
2022-11-04T06:31:08.527Z,5.97
2022-11-04T06:32:16.578Z,6.18
2022-11-04T06:33:19.687Z,6.93
2022-11-04T06:34:23.346Z,6.47
2022-11-04T06:35:25.815Z,6.30
2022-11-04T06:36:31.974Z,7.40
2022-11-04T06:37:34.975Z,12.98
2022-11-04T06:38:40.005Z,8.50
2022-11-04T06:39:42.701Z,8.20
2022-11-04T06:40:44.929Z,25.70
2022-11-04T06:41:51.584Z,10.35
2022-11-04T06:42:53.945Z,10.60
2022-11-04T06:43:56.531Z,8.30
2022-11-04T06:44:59.162Z,8.25
2022-11-04T06:46:05.000Z,7.78
2022-11-04T06:47:07.046Z,8.07
2022-11-04T06:48:10.888Z,4.40
2022-11-04T06:49:15.727Z,5.35
2022-11-04T06:50:17.247Z,5.53
2022-11-04T06:51:19.148Z,5.22
2022-11-04T06:52:24.473Z,6.90
2022-11-04T06:53:29.163Z,9.70
2022-11-04T06:54:31.732Z,5.65
2022-11-04T06:55:33.830Z,6.18
2022-11-04T06:56:37.034Z,5.73
2022-11-04T06:57:41.170Z,5.20
2022-11-04T06:58:49.916Z,5.22
2022-11-04T06:59:54.230Z,6.00
2022-11-04T07:00:57.249Z,5.68
2022-11-04T07:01:59.297Z,5.30
2022-11-04T07:03:01.947Z,5.15
2022-11-04T07:04:32.293Z,4.60
2022-11-04T07:05:34.758Z,4.90
2022-11-04T07:06:39.699Z,5.15
2022-11-04T07:07:47.053Z,3.25
2022-11-04T07:08:51.191Z,3.20
2022-11-04T07:09:53.849Z,2.83
2022-11-04T07:10:56.831Z,3.58
2022-11-04T07:12:01.910Z,4.20
2022-11-04T07:13:03.438Z,2.67
2022-11-04T07:14:05.950Z,3.00
2022-11-04T07:15:08.342Z,2.40
2022-11-04T07:16:11.118Z,2.85
2022-11-04T07:17:13.206Z,3.50
2022-11-04T07:18:14.814Z,2.30
2022-11-04T07:19:16.917Z,3.25
2022-11-04T07:20:19.799Z,2.50
2022-11-04T07:21:24.542Z,2.87
2022-11-04T07:22:28.539Z,2.42
2022-11-04T07:33:11.906Z,2.90
2022-11-04T07:34:39.969Z,2.25
2022-11-04T07:37:33.436Z,2.80
2022-11-04T07:38:58.592Z,2.50
2022-11-04T07:41:58.302Z,3.20
2022-11-04T07:43:21.863Z,4.25
2022-11-04T07:44:50.305Z,4.22
2022-11-04T07:46:24.545Z,3.53
2022-11-04T07:48:21.707Z,3.55
2022-11-04T07:49:52.013Z,2.78
2022-11-04T07:51:17.938Z,3.30
2022-11-04T07:54:37.003Z,4.38
2022-11-04T07:56:52.312Z,4.82
2022-11-04T07:58:17.191Z,3.15
2022-11-04T07:59:35.752Z,3.70
2022-11-04T08:01:31.926Z,4.57
2022-11-04T08:02:48.042Z,3.90
2022-11-04T08:04:35.932Z,4.75
2022-11-04T08:05:43.755Z,3.78
2022-11-04T08:07:26.752Z,4.57
2022-11-04T08:11:01.208Z,5.27
2022-11-04T08:12:41.773Z,4.25
2022-11-04T08:19:09.213Z,5.53
2022-11-04T08:21:26.036Z,4.90
2022-11-04T08:23:11.594Z,4.70
2022-11-04T08:26:29.532Z,5.60
2022-11-04T08:27:49.012Z,5.97
2022-11-04T08:29:03.275Z,7.28
2022-11-04T08:30:56.920Z,6.90
2022-11-04T08:32:03.024Z,6.30
2022-11-04T08:33:06.255Z,6.70
2022-11-04T08:34:09.207Z,6.68
2022-11-04T08:35:18.109Z,5.85
2022-11-04T08:36:41.169Z,5.65
2022-11-04T08:38:06.122Z,5.03
2022-11-04T08:39:16.007Z,4.72
2022-11-04T08:40:18.487Z,3.92
2022-11-04T08:41:52.289Z,3.20
2022-11-04T08:43:50.859Z,3.10
2022-11-04T08:45:20.900Z,2.50
2022-11-04T08:46:38.106Z,1.80
2022-11-04T08:48:16.185Z,2.33
2022-11-04T08:49:21.331Z,1.58
2022-11-04T08:50:44.981Z,0.95
2022-11-04T08:52:16.822Z,6.25
2022-11-04T08:53:26.245Z,4.05
2022-11-04T08:54:32.934Z,4.50
2022-11-04T08:55:36.693Z,2.17
2022-11-04T08:56:49.794Z,2.15
2022-11-04T08:58:13.249Z,2.50
2022-11-04T08:59:25.229Z,3.42
2022-11-04T09:00:48.771Z,2.85
2022-11-04T09:01:51.460Z,2.40
2022-11-04T09:02:59.367Z,2.25
2022-11-04T09:04:16.644Z,2.50
2022-11-04T09:05:56.400Z,3.33
2022-11-04T09:09:59.128Z,4.88
2022-11-04T09:11:44.592Z,5.00
2022-11-04T09:13:39.237Z,3.80
2022-11-04T09:14:46.267Z,3.63
2022-11-04T09:18:46.791Z,2.63
2022-11-04T09:22:45.473Z,2.03
2022-11-04T09:23:57.281Z,2.40
2022-11-04T09:25:10.975Z,3.85
2022-11-04T09:26:40.369Z,3.50
2022-11-04T09:32:27.657Z,3.58
2022-11-04T09:34:27.582Z,3.95
2022-11-04T09:36:06.952Z,2.83
2022-11-04T09:38:04.654Z,2.35
2022-11-04T09:39:09.922Z,2.88
2022-11-04T09:40:30.639Z,3.60
2022-11-04T09:42:46.666Z,4.47
2022-11-04T09:44:30.693Z,3.92
2022-11-04T09:45:57.881Z,3.60
2022-11-04T09:47:24.284Z,4.15
2022-11-04T09:48:41.310Z,4.50
2022-11-04T09:50:10.661Z,3.85
2022-11-04T09:51:32.526Z,4.75
2022-11-04T09:53:11.705Z,4.35
2022-11-04T09:54:51.940Z,3.03
2022-11-04T09:56:27.407Z,4.55
2022-11-04T09:57:57.906Z,3.35
2022-11-04T09:59:16.942Z,4.20
2022-11-04T10:07:53.852Z,4.03
2022-11-04T10:09:36.302Z,4.57
2022-11-04T10:15:46.585Z,2.97
2022-11-04T10:17:40.061Z,3.50
2022-11-04T10:19:25.796Z,4.18
2022-11-04T10:23:51.964Z,5.63
2022-11-04T10:25:18.538Z,2.88
2022-11-04T10:28:20.155Z,3.20
2022-11-04T10:29:44.718Z,4.63
2022-11-04T10:30:54.882Z,2.80
2022-11-04T10:32:05.358Z,3.20
2022-11-04T10:33:58.540Z,3.13
2022-11-04T10:35:10.740Z,4.72
2022-11-04T10:40:02.019Z,3.17
2022-11-04T10:45:18.390Z,3.05
2022-11-04T10:47:23.535Z,3.28
2022-11-04T10:50:38.030Z,3.97
2022-11-04T10:52:04.120Z,4.22
2022-11-04T10:56:03.718Z,11.10
2022-11-04T10:57:41.497Z,4.25
2022-11-04T11:02:49.340Z,7.55
2022-11-04T11:04:26.938Z,3.45
2022-11-04T11:05:30.348Z,5.03
2022-11-04T11:07:00.405Z,3.88
2022-11-04T11:08:02.377Z,4.47
2022-11-04T11:09:35.537Z,3.83
2022-11-04T11:11:23.509Z,4.78
2022-11-04T11:13:53.216Z,6.03
2022-11-04T11:15:27.250Z,5.50
2022-11-04T11:16:49.125Z,4.82
2022-11-04T11:18:13.413Z,3.53
2022-11-04T11:19:21.790Z,4.70
2022-11-04T11:20:26.870Z,3.72
2022-11-04T11:21:43.015Z,7.80
2022-11-04T11:23:04.643Z,4.38
2022-11-04T11:24:35.236Z,4.32
2022-11-04T11:25:50.675Z,4.60
2022-11-04T11:26:57.455Z,3.38
2022-11-04T11:28:03.114Z,3.58
2022-11-04T11:29:14.054Z,3.30
2022-11-04T11:30:57.718Z,4.13
2022-11-04T11:32:00.986Z,5.78
2022-11-04T11:33:09.090Z,3.75
2022-11-04T11:34:51.466Z,4.47
2022-11-04T11:35:59.679Z,2.80
2022-11-04T11:37:07.157Z,5.55
2022-11-04T11:38:23.242Z,3.17
2022-11-04T11:39:34.815Z,3.78
2022-11-04T11:40:52.165Z,5.35
2022-11-04T11:42:34.905Z,3.80
2022-11-04T11:43:43.410Z,16.45
2022-11-04T11:44:59.979Z,3.42
2022-11-04T11:46:03.381Z,3.70
2022-11-04T11:47:08.014Z,4.50
2022-11-04T11:49:09.229Z,5.93
2022-11-04T11:50:13.238Z,3.78
2022-11-04T11:51:30.550Z,3.13
2022-11-04T11:52:39.822Z,3.38
2022-11-04T11:54:03.407Z,5.40
2022-11-04T11:55:07.659Z,5.80
2022-11-04T11:56:59.311Z,6.28
2022-11-04T12:01:46.950Z,3.03
2022-11-04T12:03:26.834Z,5.50
2022-11-04T12:10:29.873Z,3.58
2022-11-04T12:12:08.685Z,3.67
2022-11-04T12:13:39.305Z,4.15
2022-11-04T12:15:22.985Z,6.40
2022-11-04T12:16:47.002Z,5.88
2022-11-04T12:17:55.034Z,4.30
2022-11-04T12:19:26.237Z,4.00
2022-11-04T12:21:10.007Z,4.72
2022-11-04T12:22:45.958Z,6.40
2022-11-04T12:23:57.879Z,4.95
2022-11-04T12:25:10.196Z,6.53
2022-11-04T12:26:49.723Z,4.25
2022-11-04T12:28:23.605Z,6.43
2022-11-04T12:29:33.908Z,3.88
2022-11-04T12:31:15.184Z,3.50
2022-11-04T12:32:36.407Z,4.38
2022-11-04T12:34:17.354Z,4.63
2022-11-04T12:35:40.476Z,6.25
2022-11-04T12:37:15.337Z,5.25
2022-11-04T12:38:43.067Z,5.15
2022-11-04T12:40:29.561Z,4.00
2022-11-04T12:42:20.601Z,4.68
2022-11-04T12:43:38.040Z,6.18
2022-11-04T12:44:53.844Z,3.85
2022-11-04T12:46:33.947Z,3.63
2022-11-04T12:48:00.081Z,4.35
2022-11-04T12:49:46.143Z,5.43
2022-11-04T12:51:24.482Z,4.55
2022-11-04T12:52:56.876Z,4.88
2022-11-04T12:54:31.105Z,2.70
2022-11-04T12:55:44.006Z,7.47
2022-11-04T12:56:56.422Z,4.88
2022-11-04T12:58:30.994Z,3.95
2022-11-04T13:00:15.398Z,5.07
2022-11-04T13:01:40.217Z,3.58
2022-11-04T13:03:21.876Z,3.20
2022-11-04T13:04:38.450Z,3.47
2022-11-04T13:06:01.625Z,3.92
2022-11-04T13:07:10.155Z,5.00
2022-11-04T13:08:43.718Z,5.65
2022-11-04T13:09:57.026Z,4.90
2022-11-04T13:11:26.550Z,7.13
2022-11-04T13:12:42.787Z,6.50
2022-11-04T13:13:45.460Z,5.28
2022-11-04T13:15:01.258Z,3.75
2022-11-04T13:16:10.704Z,4.72
2022-11-04T13:17:18.428Z,4.95
2022-11-04T13:18:27.083Z,4.15
2022-11-04T13:19:47.939Z,4.88
2022-11-04T13:21:14.168Z,4.05
2022-11-04T13:22:23.032Z,4.28
2022-11-04T13:23:50.976Z,5.78
2022-11-04T13:25:29.963Z,5.03
2022-11-04T13:26:32.793Z,4.30
2022-11-04T13:27:39.833Z,5.43
2022-11-04T13:28:47.390Z,4.60
2022-11-04T13:29:52.333Z,6.53
2022-11-04T13:31:35.019Z,3.60
2022-11-04T13:32:52.186Z,3.47
2022-11-04T13:34:27.295Z,5.05
2022-11-04T13:36:06.300Z,3.97
2022-11-04T13:37:34.947Z,4.55
2022-11-04T13:38:57.095Z,5.85
2022-11-04T13:40:21.535Z,5.07
2022-11-04T13:41:52.229Z,3.37
2022-11-04T13:43:39.157Z,4.45
2022-11-04T13:44:45.795Z,2.92
2022-11-04T13:45:51.909Z,5.40
2022-11-04T13:47:01.818Z,4.38
2022-11-04T13:48:14.757Z,3.97
2022-11-04T13:49:31.600Z,8.35
2022-11-04T13:50:40.650Z,4.32
2022-11-04T13:51:45.076Z,4.18
2022-11-04T13:52:52.849Z,4.50
2022-11-04T13:53:58.128Z,3.53
2022-11-04T13:55:04.550Z,3.80
2022-11-04T13:56:32.077Z,5.70
2022-11-04T13:57:54.075Z,3.00
2022-11-04T13:59:01.557Z,3.88
2022-11-04T14:00:12.484Z,6.38
2022-11-04T14:01:37.283Z,3.63
2022-11-04T14:03:02.538Z,4.75
2022-11-04T14:04:27.728Z,5.28
2022-11-04T14:05:34.484Z,4.15
2022-11-04T14:07:16.201Z,4.65
2022-11-04T14:08:20.397Z,4.60
2022-11-04T14:09:51.770Z,4.57
2022-11-04T14:10:56.460Z,5.72
2022-11-04T14:12:20.531Z,5.38
2022-11-04T14:13:37.541Z,5.25
2022-11-04T14:14:41.830Z,6.07
2022-11-04T14:16:03.733Z,3.80
2022-11-04T14:17:46.134Z,5.47
2022-11-04T14:18:49.049Z,5.50
2022-11-04T14:20:16.856Z,4.13
2022-11-04T14:21:29.873Z,3.83
2022-11-04T14:22:38.770Z,5.43
2022-11-04T14:23:47.562Z,3.47
2022-11-04T14:25:01.086Z,4.75
2022-11-04T14:26:15.086Z,6.80
2022-11-04T14:27:40.922Z,4.88
2022-11-04T14:28:47.630Z,3.95
2022-11-04T14:29:53.443Z,3.45
2022-11-04T14:30:58.911Z,5.47
2022-11-04T14:32:02.296Z,4.57
2022-11-04T14:33:39.418Z,6.70
2022-11-04T14:34:42.934Z,4.93
2022-11-04T14:35:45.551Z,4.90
2022-11-04T14:36:56.340Z,4.60
2022-11-04T14:38:09.339Z,4.05
2022-11-04T14:39:13.862Z,4.28
2022-11-04T14:40:30.355Z,4.15
2022-11-04T14:42:09.463Z,4.18
2022-11-04T14:43:38.654Z,3.55
2022-11-04T14:44:58.542Z,4.88
2022-11-04T14:46:01.748Z,5.57
2022-11-04T14:47:26.664Z,4.18
2022-11-04T14:48:29.539Z,5.40
2022-11-04T14:49:50.850Z,4.40
2022-11-04T14:50:55.322Z,5.03
2022-11-04T14:51:58.465Z,4.13
2022-11-04T14:53:06.181Z,4.10
2022-11-04T14:54:25.564Z,4.50
2022-11-04T14:55:33.689Z,5.65
2022-11-04T14:56:36.232Z,4.93
2022-11-04T14:57:41.649Z,3.33
2022-11-04T14:58:58.762Z,4.60
2022-11-04T15:00:29.483Z,5.55
2022-11-04T15:01:37.351Z,5.28
2022-11-04T15:02:39.591Z,6.28
2022-11-04T15:05:02.876Z,6.70
2022-11-04T15:06:08.006Z,7.32
2022-11-04T15:07:24.070Z,9.18
2022-11-04T15:08:45.612Z,10.68
2022-11-04T15:09:49.899Z,10.55
2022-11-04T15:10:57.622Z,9.85
2022-11-04T15:12:38.583Z,9.77
2022-11-04T15:13:59.454Z,9.15
2022-11-04T15:15:01.724Z,6.95
2022-11-04T15:16:18.646Z,8.43
2022-11-04T15:17:23.286Z,7.68
2022-11-04T15:18:30.244Z,9.38
2022-11-04T15:19:37.458Z,8.85
2022-11-04T15:20:48.438Z,8.48
2022-11-04T15:21:50.629Z,9.35
2022-11-04T15:22:54.963Z,9.35
2022-11-04T15:23:57.489Z,8.88
2022-11-04T15:25:05.817Z,7.63
2022-11-04T15:26:28.104Z,7.47
2022-11-04T15:27:34.431Z,7.13
2022-11-04T15:28:49.758Z,7.45
2022-11-04T15:30:02.988Z,8.10
2022-11-04T15:31:25.865Z,16.55
2022-11-04T15:32:35.776Z,31.60
2022-11-04T15:33:47.414Z,5.97
2022-11-04T15:34:50.867Z,8.38
2022-11-04T15:35:54.342Z,5.68
2022-11-04T15:37:04.262Z,7.45
2022-11-04T15:38:19.266Z,6.45
2022-11-04T15:39:33.499Z,4.65
2022-11-04T15:40:35.822Z,5.10
2022-11-04T15:41:59.889Z,6.28
2022-11-04T15:43:03.958Z,6.45
2022-11-04T15:44:17.620Z,8.15
2022-11-04T15:45:22.504Z,7.10
2022-11-04T15:46:30.715Z,5.88
2022-11-04T15:47:33.518Z,8.63
2022-11-04T15:48:41.208Z,7.53
2022-11-04T15:49:47.259Z,8.15
2022-11-04T15:51:12.267Z,8.10
2022-11-04T15:52:32.358Z,7.85
2022-11-04T15:53:36.197Z,8.05
2022-11-04T15:54:42.459Z,7.25
2022-11-04T15:55:47.812Z,9.10
2022-11-04T15:56:57.525Z,7.05
2022-11-04T15:58:02.521Z,10.05
2022-11-04T15:59:20.934Z,9.98
2022-11-04T16:00:26.700Z,9.00
2022-11-04T16:01:29.651Z,7.63
2022-11-04T16:02:37.680Z,8.75
2022-11-04T16:03:39.278Z,8.40
2022-11-04T16:04:46.707Z,9.02
2022-11-04T16:06:08.892Z,8.77
2022-11-04T16:07:16.079Z,7.13
2022-11-04T16:08:23.216Z,8.27
2022-11-04T16:09:29.633Z,10.35
2022-11-04T16:10:34.246Z,9.55
2022-11-04T16:11:37.853Z,12.25
2022-11-04T16:12:44.526Z,12.18
2022-11-04T16:13:47.568Z,10.65
2022-11-04T16:14:52.256Z,8.68
2022-11-04T16:16:01.829Z,10.35
2022-11-04T16:17:04.498Z,9.18
2022-11-04T16:18:29.798Z,13.03
2022-11-04T16:19:32.480Z,9.02
2022-11-04T16:20:36.464Z,11.45
2022-11-04T16:21:40.597Z,12.88
2022-11-04T16:22:46.778Z,14.57
2022-11-04T16:23:52.682Z,12.77
2022-11-04T16:24:56.121Z,11.98
2022-11-04T16:26:02.695Z,8.57
2022-11-04T16:27:15.089Z,7.15
2022-11-04T16:28:24.204Z,9.07
2022-11-04T16:29:35.157Z,7.63
2022-11-04T16:30:37.520Z,10.95
2022-11-04T16:31:41.771Z,8.95
2022-11-04T16:32:45.651Z,7.90
2022-11-04T16:33:47.570Z,7.97
2022-11-04T16:34:53.453Z,9.98
2022-11-04T16:35:57.662Z,10.38
2022-11-04T16:37:00.918Z,13.23
2022-11-04T16:38:03.375Z,13.05
2022-11-04T16:39:11.266Z,10.70
2022-11-04T16:40:14.681Z,10.32
2022-11-04T16:41:16.329Z,10.50
2022-11-04T16:42:18.939Z,11.50
2022-11-04T16:43:21.554Z,10.65
2022-11-04T16:44:25.814Z,9.98
2022-11-04T16:45:34.562Z,10.23
2022-11-04T16:46:36.110Z,10.73
2022-11-04T16:47:40.502Z,11.00
2022-11-04T16:48:41.890Z,10.50
2022-11-04T16:49:44.770Z,13.55
2022-11-04T16:50:49.177Z,15.77
2022-11-04T16:52:00.547Z,19.65
2022-11-04T16:53:03.738Z,19.52
2022-11-04T16:54:09.595Z,19.38
2022-11-04T16:55:15.794Z,20.13
2022-11-04T16:56:22.057Z,20.65
2022-11-04T16:57:25.772Z,22.17
2022-11-04T16:58:32.140Z,20.35
2022-11-04T16:59:34.332Z,19.50
2022-11-04T17:00:38.788Z,20.75
2022-11-04T17:01:41.412Z,21.50
2022-11-04T17:02:43.295Z,19.98
2022-11-04T17:03:47.706Z,15.13
2022-11-04T17:04:49.273Z,13.40
2022-11-04T17:05:56.741Z,13.18
2022-11-04T17:21:01.188Z,6.75
2022-11-04T17:22:10.021Z,8.98
2022-11-04T17:23:14.336Z,8.35
2022-11-04T17:24:16.513Z,17.15
2022-11-04T17:25:24.940Z,10.90
2022-11-04T17:26:27.258Z,12.35
2022-11-04T17:27:30.075Z,12.40
2022-11-04T17:28:33.371Z,6.30
2022-11-04T17:29:37.397Z,7.95
2022-11-04T17:30:39.421Z,7.07
2022-11-04T17:31:41.937Z,8.40
2022-11-04T17:32:45.557Z,12.18
2022-11-04T17:33:47.478Z,7.47
2022-11-04T17:34:48.961Z,10.05
2022-11-04T17:36:53.863Z,7.30
2022-11-04T17:37:56.579Z,10.50
2022-11-04T17:38:58.011Z,9.10
2022-11-04T17:41:22.607Z,10.02
2022-11-04T17:44:02.304Z,10.15
2022-11-04T17:45:04.654Z,8.85
2022-11-04T17:46:25.123Z,9.55
2022-11-04T17:47:27.240Z,11.43
2022-11-04T17:48:29.292Z,8.02
2022-11-04T17:49:31.234Z,7.53
2022-11-04T17:50:34.094Z,11.65
2022-11-04T17:51:36.860Z,16.67
2022-11-04T17:52:41.265Z,9.93
2022-11-04T17:53:43.041Z,10.18
2022-11-04T17:54:48.037Z,9.07
2022-11-04T17:55:51.046Z,9.13
2022-11-04T17:56:53.739Z,10.35
2022-11-04T17:57:55.586Z,10.48
2022-11-04T17:59:00.419Z,9.63
2022-11-04T18:00:08.059Z,9.57
2022-11-04T18:01:10.675Z,8.93
2022-11-04T18:02:12.612Z,6.32
2022-11-04T18:03:17.308Z,11.20
2022-11-04T18:04:22.974Z,9.52
2022-11-04T18:05:25.947Z,13.48
2022-11-04T18:06:30.657Z,24.08
2022-11-04T18:07:32.349Z,14.60
2022-11-04T18:08:34.244Z,9.40
2022-11-04T18:09:36.630Z,8.52
2022-11-04T18:10:38.397Z,10.00
2022-11-04T18:12:00.425Z,9.88
2022-11-04T18:13:02.362Z,8.40
2022-11-04T18:14:12.314Z,11.00
2022-11-04T18:15:18.847Z,11.38
2022-11-04T18:16:23.775Z,7.78
2022-11-04T18:17:27.792Z,8.93
2022-11-04T18:18:30.789Z,9.80
2022-11-04T18:19:32.371Z,9.30
2022-11-04T18:20:35.817Z,12.25
2022-11-04T18:21:37.830Z,15.57
2022-11-04T18:22:39.374Z,13.48
2022-11-04T18:23:42.247Z,10.93
2022-11-04T18:24:45.192Z,16.15
2022-11-04T18:25:50.685Z,13.25
2022-11-04T18:26:54.102Z,13.52
2022-11-04T18:27:56.743Z,11.35
2022-11-04T18:28:59.238Z,15.43
2022-11-04T18:30:02.612Z,10.57